Time;durP1;ratioP1;P1;durP2;ratioP2;P2;SDS_P1;SDS_P2;PMS_P1;PMS_P2;Temp;Humidity;BMP_temperature;BMP_pressure;BME280_temperature;BME280_humidity;BME280_pressure;Samples;Min_cycle;Max_cycle;Signal;HPM_P1;HPM_P2
2022/12/02 00:02:06;;;;;;;13.88;9.88;;;;;;;8.01;61.27;98927.88;5093821;28;20110;-48
2022/12/02 00:04:32;;;;;;;16.30;11.20;;;;;;;8.02;60.97;98926.06;5096094;28;20038;-48
2022/12/02 00:06:59;;;;;;;20.25;12.68;;;;;;;7.98;61.10;98925.59;5096020;28;20102;-48
2022/12/02 00:09:33;;;;;;;21.98;11.85;;;;;;;7.88;61.13;98925.84;5096280;28;20433;-48
2022/12/02 00:12:20;;;;;;;18.05;11.15;;;;;;;7.90;61.35;98923.06;5094657;28;20443;-48
2022/12/02 00:14:54;;;;;;;19.95;11.40;;;;;;;7.78;61.26;98920.84;5093994;28;20063;-48
2022/12/02 00:17:19;;;;;;;16.60;10.82;;;;;;;7.67;61.65;98923.09;5094498;28;20118;-49
2022/12/02 00:19:45;;;;;;;19.27;11.70;;;;;;;7.65;62.01;98912.81;5095488;28;20068;-48
2022/12/02 00:22:10;;;;;;;17.77;12.23;;;;;;;7.66;62.07;98914.44;5095640;28;20016;-48
2022/12/02 00:24:36;;;;;;;17.83;13.13;;;;;;;7.64;62.46;98919.03;5095811;28;20024;-49
2022/12/02 00:27:01;;;;;;;18.80;12.35;;;;;;;7.59;62.21;98914.31;5094281;28;20026;-48
2022/12/02 00:29:27;;;;;;;16.27;10.57;;;;;;;7.60;62.61;98910.72;5095503;28;20309;-48
2022/12/02 00:31:53;;;;;;;18.85;12.77;;;;;;;7.66;62.47;98913.63;5095509;28;20051;-48
2022/12/02 00:34:19;;;;;;;16.85;12.73;;;;;;;7.68;62.62;98912.44;5095522;28;20048;-48
2022/12/02 00:36:44;;;;;;;17.20;11.40;;;;;;;7.50;62.72;98910.13;5094017;28;20027;-49
2022/12/02 00:39:10;;;;;;;19.25;12.55;;;;;;;7.50;63.05;98907.53;5094053;28;20035;-48
2022/12/02 00:41:35;;;;;;;19.88;13.52;;;;;;;7.47;62.79;98902.69;5095269;28;20024;-48
2022/12/02 00:46:45;;;;;;;19.90;12.05;;;;;;;7.28;63.29;98896.09;5095513;28;20050;-48
2022/12/02 00:49:13;;;;;;;19.60;13.05;;;;;;;7.29;63.28;98905.56;5093851;28;20056;-48
2022/12/02 00:51:40;;;;;;;18.10;11.43;;;;;;;7.40;63.67;98899.97;5093723;28;20042;-48
2022/12/02 00:54:06;;;;;;;21.35;13.13;;;;;;;7.48;62.99;98893.03;5095026;28;20533;-48
2022/12/02 00:56:33;;;;;;;19.67;12.73;;;;;;;7.56;63.00;98887.75;5093633;28;20043;-49
2022/12/02 00:58:59;;;;;;;19.23;12.55;;;;;;;7.67;62.42;98895.16;5093695;28;20071;-48
2022/12/02 01:01:25;;;;;;;19.30;12.45;;;;;;;7.71;62.71;98893.03;5093460;28;20016;-49
2022/12/02 01:03:50;;;;;;;18.08;12.10;;;;;;;7.79;62.28;98898.19;5094910;28;20024;-48
2022/12/02 01:06:16;;;;;;;21.75;12.40;;;;;;;7.86;62.55;98890.44;5093466;28;20426;-49
2022/12/02 01:08:41;;;;;;;17.48;12.68;;;;;;;7.91;62.27;98899.38;5094775;28;20028;-49
2022/12/02 01:11:07;;;;;;;19.70;12.38;;;;;;;7.95;62.07;98897.22;5094904;28;20367;-49
2022/12/02 01:13:33;;;;;;;20.95;12.10;;;;;;;7.99;62.39;98893.25;5093359;28;20081;-49
2022/12/02 01:15:59;;;;;;;19.30;12.15;;;;;;;7.97;61.71;98890.81;5076484;28;20020;-48
2022/12/02 01:18:25;;;;;;;17.50;11.77;;;;;;;7.96;61.90;98897.03;5094417;28;20044;-49
2022/12/02 01:20:50;;;;;;;20.30;14.27;;;;;;;7.97;61.84;98898.66;5094453;28;20016;-48
2022/12/02 01:23:17;;;;;;;17.25;12.75;;;;;;;7.98;61.70;98896.84;5094589;28;20016;-49
2022/12/02 01:25:42;;;;;;;19.40;14.18;;;;;;;7.97;61.74;98897.84;5094468;28;20055;-49
2022/12/02 01:28:08;;;;;;;20.65;12.65;;;;;;;7.85;62.19;98894.84;5093138;28;20052;-49
2022/12/02 01:30:33;;;;;;;18.83;11.60;;;;;;;7.88;62.09;98901.50;5092999;28;20047;-48
2022/12/02 01:32:59;;;;;;;19.83;12.65;;;;;;;7.88;62.16;98898.91;5094312;28;20024;-48
2022/12/02 01:35:24;;;;;;;20.48;11.85;;;;;;;7.82;62.24;98897.00;5094285;28;20020;-49
2022/12/02 01:37:50;;;;;;;23.25;14.65;;;;;;;7.65;62.57;98902.38;5092959;28;20027;-48
2022/12/02 01:40:17;;;;;;;23.38;13.57;;;;;;;7.52;62.79;98902.13;5092888;28;20506;-49
2022/12/02 01:42:44;;;;;;;26.88;13.00;;;;;;;7.52;63.35;98902.13;5094068;28;20496;-48
2022/12/02 01:45:11;;;;;;;21.30;13.70;;;;;;;7.59;63.01;98905.69;5092810;28;20039;-49
2022/12/02 01:47:38;;;;;;;22.17;13.15;;;;;;;7.55;63.01;98902.59;5092778;28;20032;-49
2022/12/02 01:50:06;;;;;;;21.13;13.32;;;;;;;7.59;62.93;98903.06;5092718;28;20378;-48
2022/12/02 01:52:32;;;;;;;25.00;14.18;;;;;;;7.46;63.09;98897.63;5092595;28;20122;-48
2022/12/02 01:54:58;;;;;;;19.35;13.05;;;;;;;7.35;63.63;98891.81;5094009;28;20188;-49
2022/12/02 01:57:29;;;;;;;25.73;13.98;;;;;;;7.35;64.24;98898.84;5093895;28;20027;-49
2022/12/02 01:59:55;;;;;;;26.13;14.65;;;;;;;7.53;63.84;98901.16;5093845;28;20028;-49
2022/12/02 02:02:34;;;;;;;25.58;14.15;;;;;;;7.57;63.16;98905.06;5092312;28;20032;-49
2022/12/02 02:05:12;;;;;;;25.45;13.27;;;;;;;7.58;63.67;98902.25;5093997;28;20074;-48
2022/12/02 02:07:39;;;;;;;19.13;14.52;;;;;;;7.61;63.43;98901.09;5075495;28;20032;-48
2022/12/02 02:10:06;;;;;;;24.23;16.23;;;;;;;7.59;63.39;98906.50;5093639;28;20019;-48
2022/12/02 02:12:32;;;;;;;23.85;13.98;;;;;;;7.55;63.25;98904.41;5093605;28;20043;-49
2022/12/02 02:14:58;;;;;;;20.63;13.65;;;;;;;7.58;63.36;98898.81;5092320;28;20023;-49
2022/12/02 02:17:24;;;;;;;20.73;14.40;;;;;;;7.62;63.63;98900.09;5091902;28;20028;-50
2022/12/02 02:19:49;;;;;;;27.00;14.88;;;;;;;7.61;63.08;98901.09;5093441;28;20032;-48
2022/12/02 02:22:44;;;;;;;22.45;14.27;;;;;;;7.65;63.08;98898.97;5091937;28;20028;-48
2022/12/02 02:25:15;;;;;;;24.33;14.98;;;;;;;7.68;63.41;98890.75;5065236;28;20040;-48
2022/12/02 02:27:51;;;;;;;21.92;14.27;;;;;;;7.67;63.27;98889.16;5093332;28;20028;-48
2022/12/02 02:30:17;;;;;;;21.35;13.43;;;;;;;7.64;63.43;98890.28;5093229;28;20086;-49
2022/12/02 02:32:43;;;;;;;22.83;14.27;;;;;;;7.62;63.54;98884.44;5093212;28;20032;-48
2022/12/02 02:35:09;;;;;;;26.42;14.75;;;;;;;7.50;63.47;98891.88;5091795;28;20036;-48
2022/12/02 02:37:35;;;;;;;39.20;15.32;;;;;;;7.39;63.87;98884.47;5092139;28;20024;-48
2022/12/02 02:40:01;;;;;;;26.02;14.77;;;;;;;7.42;64.17;98883.28;5091719;28;20031;-48
2022/12/02 02:42:27;;;;;;;23.35;14.57;;;;;;;7.42;64.24;98881.47;5093168;28;20453;-49
2022/12/02 02:44:53;;;;;;;25.10;14.50;;;;;;;7.43;63.75;98880.50;5091623;28;20055;-48
2022/12/02 02:47:18;;;;;;;21.85;14.93;;;;;;;7.43;63.87;98877.09;5091571;28;20027;-49
2022/12/02 02:49:44;;;;;;;35.70;15.23;;;;;;;7.40;64.10;98873.84;5092926;28;20034;-48
2022/12/02 02:52:10;;;;;;;30.33;15.02;;;;;;;7.41;63.84;98872.03;5091547;28;20031;-49
2022/12/02 02:54:36;;;;;;;23.02;14.68;;;;;;;7.43;64.13;98867.44;5093019;28;20055;-48
2022/12/02 02:57:01;;;;;;;26.98;14.20;;;;;;;7.42;64.00;98860.59;5092681;28;20525;-49
2022/12/02 02:59:27;;;;;;;24.13;15.10;;;;;;;7.43;64.34;98864.84;5092711;28;20031;-48
2022/12/02 03:01:53;;;;;;;27.65;14.80;;;;;;;7.44;64.48;98860.41;5092630;28;20479;-49
2022/12/02 03:04:21;;;;;;;24.92;14.95;;;;;;;7.47;64.36;98860.88;5092646;28;20028;-48
2022/12/02 03:06:48;;;;;;;22.98;14.57;;;;;;;7.49;64.12;98852.88;5091268;28;20375;-48
2022/12/02 03:09:16;;;;;;;22.50;14.68;;;;;;;7.51;64.05;98861.34;5092580;28;20031;-48
2022/12/02 03:11:44;;;;;;;23.52;15.30;;;;;;;7.50;64.16;98850.06;5092483;28;20030;-49
2022/12/02 03:14:11;;;;;;;21.15;14.98;;;;;;;7.48;63.83;98853.88;5091145;28;20073;-48
2022/12/02 03:16:37;;;;;;;29.77;15.93;;;;;;;7.45;63.88;98856.84;5091023;28;20497;-49
2022/12/02 03:19:06;;;;;;;23.80;14.43;;;;;;;7.40;64.42;98855.56;5090830;28;20040;-49
2022/12/02 03:21:33;;;;;;;30.67;15.95;;;;;;;7.34;64.02;98852.81;5092232;28;20020;-48
2022/12/02 03:24:01;;;;;;;33.05;15.23;;;;;;;7.25;64.53;98853.88;5092445;28;20023;-49
2022/12/02 03:26:28;;;;;;;27.00;15.98;;;;;;;7.25;64.42;98853.88;5092175;28;20020;-48
2022/12/02 03:28:56;;;;;;;24.55;16.45;;;;;;;7.29;64.84;98844.72;5090895;28;20027;-48
2022/12/02 03:31:22;;;;;;;34.08;21.25;;;;;;;7.30;64.33;98854.97;5092153;28;20016;-49
2022/12/02 03:33:49;;;;;;;258.85;154.77;;;;;;;7.31;64.68;98845.38;5092167;28;20020;-49
2022/12/02 03:36:15;;;;;;;154.30;89.15;;;;;;;7.32;64.22;98845.16;5091258;28;20020;-49
2022/12/02 03:38:41;;;;;;;125.10;72.57;;;;;;;7.34;64.57;98851.03;5090717;28;20094;-49
2022/12/02 03:41:10;;;;;;;94.40;52.20;;;;;;;7.30;64.13;98847.13;5092019;28;20024;-48
2022/12/02 03:43:35;;;;;;;47.55;30.33;;;;;;;7.24;64.07;98844.41;5090681;28;20107;-48
2022/12/02 03:46:03;;;;;;;38.25;23.52;;;;;;;7.20;64.17;98841.34;5090624;28;20108;-48
2022/12/02 03:48:29;;;;;;;47.38;28.45;;;;;;;7.19;64.77;98842.34;5092447;28;20458;-48
2022/12/02 03:50:57;;;;;;;28.27;18.85;;;;;;;7.21;65.02;98835.16;5091956;28;20024;-48
2022/12/02 03:53:23;;;;;;;33.25;19.15;;;;;;;7.17;64.63;98831.25;5090561;28;20118;-48
2022/12/02 03:55:49;;;;;;;32.50;19.50;;;;;;;7.11;64.67;98838.00;5090560;28;20112;-48
2022/12/02 03:58:15;;;;;;;31.83;20.02;;;;;;;7.12;64.85;98831.81;5091862;28;20028;-48
2022/12/02 04:00:40;;;;;;;35.30;18.92;;;;;;;7.09;65.04;98834.75;5091730;28;20551;-48
2022/12/02 04:03:06;;;;;;;32.70;19.13;;;;;;;7.09;64.99;98833.94;5091784;28;20032;-48
2022/12/02 04:05:32;;;;;;;30.98;18.67;;;;;;;7.06;65.38;98835.06;5090440;28;20583;-49
2022/12/02 04:07:58;;;;;;;24.83;17.50;;;;;;;7.04;64.77;98828.41;5090488;28;20036;-49
2022/12/02 04:10:24;;;;;;;27.30;17.52;;;;;;;6.99;65.48;98826.34;5090385;28;20016;-48
2022/12/02 04:12:49;;;;;;;30.45;18.25;;;;;;;6.94;64.91;98826.88;5091983;28;20032;-48
2022/12/02 04:15:15;;;;;;;28.45;18.77;;;;;;;6.88;64.96;98826.72;5091879;28;20559;-48
2022/12/02 04:17:41;;;;;;;29.27;17.52;;;;;;;6.85;65.44;98825.28;5090073;28;20036;-49
2022/12/02 04:20:07;;;;;;;33.03;18.23;;;;;;;6.85;65.04;98824.47;5090377;28;20062;-48
2022/12/02 04:22:33;;;;;;;26.60;16.77;;;;;;;6.80;65.12;98819.75;5090333;28;20031;-48
2022/12/02 04:25:01;;;;;;;26.70;16.63;;;;;;;6.76;65.60;98821.91;5091872;28;20036;-48
2022/12/02 04:27:27;;;;;;;24.38;17.27;;;;;;;6.77;65.62;98820.13;5091851;28;20367;-48
2022/12/02 04:29:53;;;;;;;27.15;17.08;;;;;;;6.78;66.03;98814.72;5091575;28;20035;-49
2022/12/02 04:32:19;;;;;;;26.52;17.58;;;;;;;6.76;65.31;98808.88;5091459;28;20034;-48
2022/12/02 04:34:44;;;;;;;27.13;17.13;;;;;;;6.71;65.83;98807.75;5091563;28;20103;-48
2022/12/02 04:37:10;;;;;;;28.67;18.70;;;;;;;6.68;65.99;98806.31;5091460;28;20032;-48
2022/12/02 04:39:35;;;;;;;24.95;16.85;;;;;;;6.67;66.17;98801.28;5091441;28;20031;-48
2022/12/02 04:42:01;;;;;;;27.65;15.80;;;;;;;6.58;66.00;98803.94;5073290;28;20119;-48
2022/12/02 04:44:27;;;;;;;24.35;16.08;;;;;;;6.59;66.71;98802.13;5091383;28;20115;-48
2022/12/02 04:46:52;;;;;;;27.25;17.33;;;;;;;6.60;66.34;98801.97;5092737;28;20035;-49
2022/12/02 04:49:18;;;;;;;26.42;15.65;;;;;;;6.65;66.71;98798.81;5095186;28;20118;-48
2022/12/02 04:51:43;;;;;;;24.77;15.77;;;;;;;6.72;66.45;98799.78;5093793;28;20098;-49
2022/12/02 04:54:09;;;;;;;30.45;17.85;;;;;;;6.74;66.41;98799.59;5076852;28;20031;-48
2022/12/02 04:56:35;;;;;;;24.85;16.58;;;;;;;6.72;65.96;98806.75;5093728;28;20024;-49
2022/12/02 04:59:00;;;;;;;27.75;17.02;;;;;;;6.72;66.71;98805.00;5094946;28;20026;-48
2022/12/02 05:01:27;;;;;;;25.30;15.98;;;;;;;6.78;66.59;98800.84;5094862;28;20089;-48
2022/12/02 05:03:53;;;;;;;27.15;16.38;;;;;;;6.82;66.40;98809.16;5094944;28;20036;-48
2022/12/02 05:06:18;;;;;;;24.00;16.40;;;;;;;6.83;66.28;98802.97;5076652;28;20043;-48
2022/12/02 05:08:44;;;;;;;28.88;17.55;;;;;;;6.82;66.08;98802.13;5093564;28;20075;-48
2022/12/02 05:11:09;;;;;;;32.70;17.15;;;;;;;6.80;66.16;98802.34;5093435;28;20540;-49
2022/12/02 05:13:35;;;;;;;31.25;16.30;;;;;;;6.84;66.51;98802.81;5094696;28;20020;-49
2022/12/02 05:16:01;;;;;;;22.80;15.50;;;;;;;6.89;66.54;98808.28;5094700;28;20086;-48
2022/12/02 05:18:26;;;;;;;25.77;15.43;;;;;;;6.87;66.24;98812.88;5094308;28;20089;-49
2022/12/02 05:20:52;;;;;;;25.90;17.30;;;;;;;6.85;66.65;98808.81;5094516;28;20111;-48
2022/12/02 05:23:17;;;;;;;23.35;14.70;;;;;;;6.84;66.44;98815.84;5093259;28;20502;-48
2022/12/02 05:25:43;;;;;;;28.05;16.80;;;;;;;6.85;66.65;98808.81;5094774;28;20081;-48
2022/12/02 05:28:09;;;;;;;29.42;16.80;;;;;;;6.82;66.28;98809.97;5094461;28;20031;-48
2022/12/02 05:30:34;;;;;;;25.20;16.45;;;;;;;6.83;66.60;98809.00;5094707;28;20046;-49
2022/12/02 05:33:00;;;;;;;26.67;16.27;;;;;;;6.80;66.87;98812.75;5094396;28;20070;-49
2022/12/02 05:35:25;;;;;;;30.95;16.23;;;;;;;6.78;66.49;98803.47;5092964;28;20097;-48
2022/12/02 05:37:51;;;;;;;27.40;16.98;;;;;;;6.76;66.97;98803.66;5094326;28;20024;-48
2022/12/02 05:40:16;;;;;;;29.95;17.25;;;;;;;6.71;66.38;98802.56;5094200;28;20024;-49
2022/12/02 05:42:42;;;;;;;28.67;15.95;;;;;;;6.68;67.19;98806.31;5094137;28;20020;-48
2022/12/02 05:45:21;;;;;;;24.65;16.33;;;;;;;6.58;66.98;98801.31;5094099;28;20111;-48
2022/12/02 05:47:53;;;;;;;29.40;17.70;;;;;;;6.50;67.18;98801.38;5092759;28;20020;-48
2022/12/02 05:50:19;;;;;;;27.95;16.60;;;;;;;6.43;66.74;98802.22;5094048;28;20040;-48
2022/12/02 05:52:45;;;;;;;28.10;17.52;;;;;;;6.42;67.35;98804.00;5092624;28;20024;-48
2022/12/02 05:55:14;;;;;;;28.50;16.35;;;;;;;6.43;67.04;98805.63;5093924;28;20532;-48
2022/12/02 05:57:40;;;;;;;34.58;17.00;;;;;;;6.43;67.71;98803.03;5093387;28;20103;-48
2022/12/02 06:00:11;;;;;;;31.85;16.70;;;;;;;6.41;67.98;98804.97;5093350;28;20103;-48
2022/12/02 06:02:59;;;;;;;28.23;17.35;;;;;;;6.36;67.82;98802.91;5093823;28;20020;-48
2022/12/02 06:05:32;;;;;;;29.08;16.83;;;;;;;6.38;67.97;98802.72;5093327;28;20028;-48
2022/12/02 06:08:14;;;;;;;29.77;18.13;;;;;;;6.38;67.84;98807.94;5093792;28;20031;-48
2022/12/02 06:10:46;;;;;;;25.17;16.98;;;;;;;6.38;67.96;98805.34;5093899;28;20554;-48
2022/12/02 06:13:22;;;;;;;30.00;16.35;;;;;;;6.35;68.13;98805.66;5093601;28;20020;-48
2022/12/02 06:15:49;;;;;;;28.50;17.08;;;;;;;6.36;67.95;98809.91;5093625;28;20062;-48
2022/12/02 06:18:21;;;;;;;30.30;17.42;;;;;;;6.36;68.04;98813.31;5092017;28;20044;-48
2022/12/02 06:20:52;;;;;;;31.88;17.08;;;;;;;6.36;67.79;98800.28;5092027;28;20016;-48
2022/12/02 06:23:19;;;;;;;44.13;19.33;;;;;;;6.30;67.59;98806.19;5093419;28;20028;-48
2022/12/02 06:25:49;;;;;;;34.22;16.67;;;;;;;6.25;67.92;98810.28;5075133;28;20490;-48
2022/12/02 06:28:31;;;;;;;31.02;16.48;;;;;;;6.24;68.06;98813.84;5093257;28;20066;-48
2022/12/02 06:31:24;;;;;;;26.48;17.67;;;;;;;6.24;68.19;98806.03;5091920;28;20505;-48
2022/12/02 06:33:54;;;;;;;26.90;16.92;;;;;;;6.24;68.37;98809.47;5091256;28;20036;-48
2022/12/02 06:36:22;;;;;;;33.58;18.25;;;;;;;6.23;68.49;98809.63;5091894;28;20035;-48
2022/12/02 06:38:48;;;;;;;34.05;19.27;;;;;;;6.21;68.66;98804.59;5093147;28;20031;-48
2022/12/02 06:41:21;;;;;;;31.60;18.27;;;;;;;6.14;68.35;98804.47;5091620;28;20024;-48
2022/12/02 06:46:34;;;;;;;32.40;16.38;;;;;;;6.14;68.52;98814.06;5093174;28;20119;-48
2022/12/02 06:49:24;;;;;;;29.92;19.00;;;;;;;6.12;68.75;98808.22;5092849;28;20065;-48
2022/12/02 06:52:00;;;;;;;28.45;18.58;;;;;;;6.11;69.09;98803.97;5092881;28;20553;-48
2022/12/02 06:54:31;;;;;;;28.50;16.88;;;;;;;6.12;68.92;98810.81;5091719;28;20035;-48
2022/12/02 06:57:01;;;;;;;32.40;18.10;;;;;;;6.11;68.84;98812.59;5091490;28;20114;-48
2022/12/02 06:59:27;;;;;;;33.85;17.17;;;;;;;6.12;68.58;98809.03;5092707;28;20035;-48
2022/12/02 07:02:12;;;;;;;33.30;17.83;;;;;;;6.10;68.83;98807.56;5092584;28;20016;-48
2022/12/02 07:04:49;;;;;;;31.58;17.35;;;;;;;6.11;69.27;98811.78;5092974;28;20409;-48
2022/12/02 07:07:32;;;;;;;35.40;19.25;;;;;;;6.12;68.53;98809.03;5092448;28;20032;-48
2022/12/02 07:10:05;;;;;;;29.70;17.42;;;;;;;6.11;69.09;98801.38;5092508;28;20028;-48
2022/12/02 07:12:37;;;;;;;31.33;18.60;;;;;;;6.09;69.04;98804.13;5092541;28;20511;-48
2022/12/02 07:15:26;;;;;;;30.15;18.17;;;;;;;6.05;69.57;98813.28;5092394;28;20024;-48
2022/12/02 07:17:55;;;;;;;32.65;17.98;;;;;;;6.07;69.56;98805.28;5080287;28;20047;-49
2022/12/02 07:20:33;;;;;;;27.45;17.55;;;;;;;6.09;68.84;98804.13;5092432;28;20089;-48
2022/12/02 07:23:13;;;;;;;29.17;18.23;;;;;;;6.10;69.66;98810.97;5074151;28;20081;-48
2022/12/02 07:25:56;;;;;;;37.50;18.17;;;;;;;6.07;69.26;98811.31;5092363;28;20036;-48
2022/12/02 07:28:34;;;;;;;37.15;18.48;;;;;;;6.08;69.07;98812.13;5074044;28;20027;-48
2022/12/02 07:31:05;;;;;;;39.10;18.98;;;;;;;6.12;68.91;98809.03;5092251;28;20111;-48
2022/12/02 07:33:31;;;;;;;32.88;18.60;;;;;;;6.16;69.26;98806.91;5092256;28;20024;-48
2022/12/02 07:35:57;;;;;;;33.65;20.15;;;;;;;6.22;69.80;98808.00;5092039;28;20107;-48
2022/12/02 07:38:22;;;;;;;31.20;18.65;;;;;;;6.27;69.06;98803.09;5092074;28;20016;-48
2022/12/02 07:40:48;;;;;;;33.35;19.20;;;;;;;6.31;69.39;98807.00;5090591;28;20036;-48
2022/12/02 07:43:13;;;;;;;33.60;18.55;;;;;;;6.36;69.22;98800.28;5091959;28;20020;-48
2022/12/02 07:45:39;;;;;;;37.20;19.95;;;;;;;6.43;69.17;98799.59;5090735;28;20024;-48
2022/12/02 07:48:05;;;;;;;32.30;19.70;;;;;;;6.46;69.11;98801.84;5090625;28;20103;-48
2022/12/02 07:50:30;;;;;;;35.28;19.98;;;;;;;6.47;69.33;98798.28;5090646;28;20452;-48
2022/12/02 07:52:56;;;;;;;32.22;19.02;;;;;;;6.46;69.38;98792.25;5091986;28;20027;-49
2022/12/02 07:55:22;;;;;;;35.67;19.35;;;;;;;6.45;69.74;98795.84;5090554;28;20032;-48
2022/12/02 07:57:47;;;;;;;38.38;19.80;;;;;;;6.42;70.05;98798.81;5090941;28;20168;-48
2022/12/02 08:00:14;;;;;;;35.63;19.45;;;;;;;6.41;70.19;98802.38;5090510;28;20062;-48
2022/12/02 08:02:39;;;;;;;43.75;20.08;;;;;;;6.40;70.25;98806.78;5092044;28;20385;-48
2022/12/02 08:05:06;;;;;;;38.75;18.98;;;;;;;6.42;70.50;98800.56;5090477;28;20028;-49
2022/12/02 08:07:31;;;;;;;38.13;21.23;;;;;;;6.42;70.43;98797.97;5092081;28;20016;-48
2022/12/02 08:09:57;;;;;;;33.88;20.00;;;;;;;6.44;69.76;98799.44;5091967;28;20371;-48
2022/12/02 08:12:22;;;;;;;34.72;19.83;;;;;;;6.47;70.20;98801.69;5091715;28;20595;-48
2022/12/02 08:14:48;;;;;;;43.47;20.17;;;;;;;6.50;69.67;98797.94;5091668;28;20109;-48
2022/12/02 08:17:14;;;;;;;49.75;19.83;;;;;;;6.55;70.05;98804.25;5091630;28;20054;-48
2022/12/02 08:19:40;;;;;;;36.22;20.77;;;;;;;6.64;69.50;98801.59;5091498;28;20047;-48
2022/12/02 08:22:06;;;;;;;51.47;20.17;;;;;;;6.73;69.83;98805.78;5093401;28;20024;-48
2022/12/02 08:24:33;;;;;;;40.80;20.48;;;;;;;6.80;69.79;98801.50;5094358;28;20390;-48
2022/12/02 08:26:58;;;;;;;32.60;19.00;;;;;;;6.83;69.52;98810.78;5095650;28;20154;-48
2022/12/02 08:29:24;;;;;;;35.20;19.67;;;;;;;6.82;69.29;98801.34;5095610;28;20066;-48
2022/12/02 08:31:50;;;;;;;42.47;19.92;;;;;;;6.82;69.33;98811.75;5094221;28;20035;-48
2022/12/02 08:34:15;;;;;;;34.55;19.25;;;;;;;6.80;68.87;98809.31;5094164;28;20051;-48
2022/12/02 08:36:41;;;;;;;53.60;19.83;;;;;;;6.76;69.00;98813.25;5094098;28;20030;-48
2022/12/02 08:39:07;;;;;;;86.97;22.05;;;;;;;6.69;69.06;98805.31;5095321;28;20397;-48
2022/12/02 08:41:34;;;;;;;67.07;21.15;;;;;;;6.68;69.17;98813.31;5093945;28;20035;-48
2022/12/02 08:44:00;;;;;;;41.90;19.08;;;;;;;6.72;69.78;98810.22;5094056;28;20020;-48
2022/12/02 08:46:26;;;;;;;36.95;19.13;;;;;;;6.77;69.21;98812.28;5093925;28;20050;-48
2022/12/02 08:48:53;;;;;;;42.72;19.13;;;;;;;6.82;69.49;98809.16;5093897;28;20078;-48
2022/12/02 08:51:19;;;;;;;43.35;20.27;;;;;;;6.85;68.84;98804.41;5095031;28;20071;-48
2022/12/02 08:53:45;;;;;;;36.55;20.40;;;;;;;6.89;69.20;98799.66;5093831;28;20046;-48
2022/12/02 08:56:11;;;;;;;37.17;18.90;;;;;;;6.95;68.99;98804.19;5095081;28;20486;-48
2022/12/02 08:58:36;;;;;;;37.08;19.13;;;;;;;6.96;68.47;98796.19;5076785;28;20115;-48
2022/12/02 09:01:03;;;;;;;30.17;18.98;;;;;;;6.96;68.42;98803.19;5093656;28;20024;-48
2022/12/02 09:03:28;;;;;;;38.05;19.25;;;;;;;6.93;68.88;98804.34;5094987;28;20386;-48
2022/12/02 09:05:54;;;;;;;35.28;19.80;;;;;;;6.96;68.75;98796.19;5093539;28;20036;-48
2022/12/02 09:08:20;;;;;;;34.08;19.85;;;;;;;6.97;68.63;98797.00;5094834;28;20513;-48
2022/12/02 09:10:46;;;;;;;38.42;19.45;;;;;;;6.99;68.25;98806.25;5095091;28;20027;-48
2022/12/02 09:13:11;;;;;;;34.17;19.27;;;;;;;6.99;68.15;98803.66;5094684;28;20020;-49
2022/12/02 09:15:37;;;;;;;30.67;18.92;;;;;;;6.97;67.98;98805.63;5094662;28;20024;-48
2022/12/02 09:18:03;;;;;;;33.38;19.13;;;;;;;6.93;67.77;98796.53;5094435;28;20044;-49
2022/12/02 09:20:29;;;;;;;36.83;19.60;;;;;;;6.90;67.68;98801.28;5094680;28;20464;-49
2022/12/02 09:22:55;;;;;;;38.03;19.85;;;;;;;6.85;68.15;98799.19;5094513;28;20020;-48
2022/12/02 09:25:21;;;;;;;36.35;20.73;;;;;;;6.87;67.96;98802.44;5094541;28;20024;-48
2022/12/02 09:27:46;;;;;;;38.90;20.38;;;;;;;6.93;68.08;98793.13;5093212;28;20031;-48
2022/12/02 09:30:13;;;;;;;36.30;19.63;;;;;;;6.96;67.69;98798.81;5094379;28;20024;-48
2022/12/02 09:32:39;;;;;;;32.53;20.50;;;;;;;7.05;67.67;98796.13;5093513;28;20084;-48
2022/12/02 09:35:05;;;;;;;45.85;21.88;;;;;;;7.14;67.62;98795.91;5093853;28;20099;-49
2022/12/02 09:37:32;;;;;;;31.73;19.73;;;;;;;7.27;67.13;98791.88;5094339;28;20096;-49
2022/12/02 09:39:58;;;;;;;37.13;19.17;;;;;;;7.31;66.65;98799.19;5094293;28;20020;-48
2022/12/02 09:42:24;;;;;;;35.80;19.42;;;;;;;7.36;66.66;98799.47;5092785;28;20405;-49
2022/12/02 09:44:50;;;;;;;38.30;20.58;;;;;;;7.38;66.22;98799.28;5092973;28;20020;-49
2022/12/02 09:47:18;;;;;;;39.03;19.73;;;;;;;7.44;66.39;98792.53;5094191;28;20050;-48
2022/12/02 09:49:46;;;;;;;36.25;21.80;;;;;;;7.48;66.30;98788.59;5094140;28;20028;-48
2022/12/02 09:52:16;;;;;;;34.70;19.00;;;;;;;7.56;65.80;98786.69;5094008;28;20028;-49
2022/12/02 09:54:43;;;;;;;36.05;19.88;;;;;;;7.60;65.73;98790.56;5094041;28;20535;-49
2022/12/02 09:57:13;;;;;;;34.55;19.45;;;;;;;7.59;65.82;98791.56;5093881;28;20134;-48
2022/12/02 09:59:40;;;;;;;39.42;20.73;;;;;;;7.60;65.76;98793.19;5093967;28;20047;-49
2022/12/02 10:02:21;;;;;;;39.60;19.92;;;;;;;7.67;65.81;98795.91;5093689;28;20448;-48
2022/12/02 10:04:47;;;;;;;39.95;20.65;;;;;;;7.72;65.45;98798.78;5093823;28;20081;-48
2022/12/02 10:07:12;;;;;;;34.55;19.15;;;;;;;7.75;65.23;98784.56;5093704;28;20032;-49
2022/12/02 10:09:39;;;;;;;38.65;20.17;;;;;;;7.82;64.94;98782.03;5093754;28;20444;-48
2022/12/02 10:12:08;;;;;;;28.73;19.25;;;;;;;7.94;64.92;98772.75;5093551;28;20024;-48
2022/12/02 10:14:34;;;;;;;38.42;19.65;;;;;;;8.05;64.48;98768.88;5093641;28;20057;-49
2022/12/02 10:17:00;;;;;;;34.53;19.85;;;;;;;8.12;64.14;98783.66;5093526;28;20124;-49
2022/12/02 10:19:25;;;;;;;46.00;20.45;;;;;;;8.17;64.39;98777.91;5091959;28;20048;-49
2022/12/02 10:21:51;;;;;;;46.08;21.77;;;;;;;8.25;63.94;98772.56;5093267;28;20031;-49
2022/12/02 10:24:35;;;;;;;45.13;20.48;;;;;;;8.34;63.79;98773.25;5093418;28;20111;-48
2022/12/02 10:27:01;;;;;;;33.63;19.27;;;;;;;8.39;63.53;98770.88;5093305;28;20055;-48
2022/12/02 10:29:29;;;;;;;35.28;19.30;;;;;;;8.42;63.33;98760.09;5092005;28;20463;-49
2022/12/02 10:31:58;;;;;;;41.90;20.08;;;;;;;8.46;63.21;98752.69;5093221;28;20058;-49
2022/12/02 10:34:26;;;;;;;38.17;19.63;;;;;;;8.58;63.02;98751.22;5093227;28;20020;-49
2022/12/02 10:36:53;;;;;;;33.78;19.55;;;;;;;8.59;62.50;98750.22;5093132;28;20089;-49
2022/12/02 10:39:25;;;;;;;29.30;18.88;;;;;;;8.59;62.04;98755.44;5093070;28;20028;-49
2022/12/02 10:42:03;;;;;;;37.47;21.65;;;;;;;8.49;62.30;98754.94;5092972;28;20020;-48
2022/12/02 10:44:33;;;;;;;33.55;19.83;;;;;;;8.42;61.97;98752.25;5092599;28;20042;-49
2022/12/02 10:47:20;;;;;;;33.72;19.15;;;;;;;8.33;62.23;98750.69;5091653;28;20508;-49
2022/12/02 10:49:52;;;;;;;32.45;19.55;;;;;;;8.22;62.42;98748.56;5091854;28;20020;-49
2022/12/02 10:52:25;;;;;;;35.63;18.92;;;;;;;8.06;62.52;98750.41;5091595;28;20060;-49
2022/12/02 10:54:54;;;;;;;30.55;19.20;;;;;;;7.95;62.83;98751.69;5092889;28;20017;-49
2022/12/02 10:57:25;;;;;;;36.88;19.50;;;;;;;7.86;62.78;98749.34;5092769;28;20074;-48
2022/12/02 10:59:56;;;;;;;36.00;19.65;;;;;;;7.74;63.47;98749.78;5092719;28;20020;-48
2022/12/02 11:02:32;;;;;;;35.42;20.33;;;;;;;7.65;63.12;98747.47;5091295;28;20028;-49
2022/12/02 11:05:09;;;;;;;33.67;19.42;;;;;;;7.54;64.26;98746.09;5092735;28;20020;-49
2022/12/02 11:07:35;;;;;;;36.58;21.75;;;;;;;7.36;65.50;98744.66;5092737;28;20043;-49
2022/12/02 11:10:01;;;;;;;32.95;20.67;;;;;;;7.26;66.45;98743.25;5092502;28;20028;-48
2022/12/02 11:12:56;;;;;;;33.45;21.27;;;;;;;7.09;67.74;98742.59;5091188;28;20032;-48
2022/12/02 11:15:39;;;;;;;37.90;22.67;;;;;;;6.92;68.65;98742.75;5091216;28;20028;-48
2022/12/02 11:18:08;;;;;;;44.85;21.40;;;;;;;6.85;69.69;98735.78;5092228;28;20048;-48
2022/12/02 11:20:44;;;;;;;43.97;22.30;;;;;;;6.82;70.69;98734.31;5092294;28;20035;-48
2022/12/02 11:23:19;;;;;;;40.10;22.35;;;;;;;6.83;71.43;98735.16;5092390;28;20401;-48
2022/12/02 11:25:47;;;;;;;43.25;23.95;;;;;;;6.86;71.95;98729.56;5092155;28;20528;-48
2022/12/02 11:28:28;;;;;;;39.28;22.73;;;;;;;6.90;72.43;98725.63;5092241;28;20039;-48
2022/12/02 11:31:21;;;;;;;44.42;22.63;;;;;;;6.92;72.88;98716.66;5092158;28;20032;-48
2022/12/02 11:33:50;;;;;;;33.42;21.20;;;;;;;6.95;72.97;98716.28;5089784;28;20040;-48
2022/12/02 11:36:21;;;;;;;35.38;22.25;;;;;;;6.93;72.93;98709.63;5092058;28;20070;-48